sensor_id;sensor_type;location;lat;lon;timestamp;pressure;altitude;pressure_sealevel;temperature;humidity
50103;BME280;35993;52.604;10.078;2023-02-19T00:02:23;101047.28;;;7.37;100.00
50103;BME280;35993;52.604;10.078;2023-02-19T00:04:49;101049.59;;;7.40;100.00
50103;BME280;35993;52.604;10.078;2023-02-19T00:07:14;101050.63;;;7.39;100.00
50103;BME280;35993;52.604;10.078;2023-02-19T00:09:40;101053.59;;;7.44;100.00
50103;BME280;35993;52.604;10.078;2023-02-19T00:12:05;101048.38;;;7.43;100.00
50103;BME280;35993;52.604;10.078;2023-02-19T00:14:31;101041.88;;;7.52;100.00
50103;BME280;35993;52.604;10.078;2023-02-19T00:16:57;101043.38;;;7.40;100.00
50103;BME280;35993;52.604;10.078;2023-02-19T00:19:23;101046.34;;;7.45;100.00
50103;BME280;35993;52.604;10.078;2023-02-19T00:21:52;101028.38;;;7.52;100.00
50103;BME280;35993;52.604;10.078;2023-02-19T00:24:18;101012.72;;;7.47;100.00
50103;BME280;35993;52.604;10.078;2023-02-19T00:26:44;101006.16;;;7.57;100.00
50103;BME280;35993;52.604;10.078;2023-02-19T00:29:15;100998.31;;;7.62;100.00
50103;BME280;35993;52.604;10.078;2023-02-19T00:31:42;101002.50;;;7.64;100.00
50103;BME280;35993;52.604;10.078;2023-02-19T00:34:08;101003.72;;;7.62;100.00
50103;BME280;35993;52.604;10.078;2023-02-19T00:36:37;101012.06;;;7.45;100.00
50103;BME280;35993;52.604;10.078;2023-02-19T00:39:05;101010.59;;;7.28;100.00
50103;BME280;35993;52.604;10.078;2023-02-19T00:41:31;101008.25;;;7.25;100.00
50103;BME280;35993;52.604;10.078;2023-02-19T00:44:02;101012.38;;;7.20;100.00
50103;BME280;35993;52.604;10.078;2023-02-19T00:46:30;101008.84;;;7.20;100.00
50103;BME280;35993;52.604;10.078;2023-02-19T00:48:56;101005.88;;;7.15;100.00
50103;BME280;35993;52.604;10.078;2023-02-19T00:51:28;100993.84;;;7.17;100.00
50103;BME280;35993;52.604;10.078;2023-02-19T00:53:54;100992.72;;;7.12;100.00
50103;BME280;35993;52.604;10.078;2023-02-19T00:56:20;100988.72;;;7.08;100.00
50103;BME280;35993;52.604;10.078;2023-02-19T00:58:46;100979.69;;;7.00;100.00
50103;BME280;35993;52.604;10.078;2023-02-19T01:01:12;100975.16;;;7.01;100.00
50103;BME280;35993;52.604;10.078;2023-02-19T01:03:38;100973.81;;;6.97;100.00
50103;BME280;35993;52.604;10.078;2023-02-19T01:06:06;100964.44;;;6.93;100.00
50103;BME280;35993;52.604;10.078;2023-02-19T01:08:32;100976.09;;;6.93;100.00
50103;BME280;35993;52.604;10.078;2023-02-19T01:11:00;100969.22;;;6.91;100.00
50103;BME280;35993;52.604;10.078;2023-02-19T01:13:26;100958.41;;;6.91;100.00
50103;BME280;35993;52.604;10.078;2023-02-19T01:15:53;100964.81;;;6.89;100.00
50103;BME280;35993;52.604;10.078;2023-02-19T01:18:19;100966.50;;;6.91;100.00
50103;BME280;35993;52.604;10.078;2023-02-19T01:20:45;100963.97;;;6.89;100.00
50103;BME280;35993;52.604;10.078;2023-02-19T01:23:12;100964.16;;;6.87;100.00
50103;BME280;35993;52.604;10.078;2023-02-19T01:25:39;100966.22;;;6.85;100.00
50103;BME280;35993;52.604;10.078;2023-02-19T01:28:05;100970.56;;;6.86;100.00
50103;BME280;35993;52.604;10.078;2023-02-19T01:30:34;100971.25;;;6.88;100.00
50103;BME280;35993;52.604;10.078;2023-02-19T01:33:01;100960.44;;;6.88;100.00
50103;BME280;35993;52.604;10.078;2023-02-19T01:35:26;100963.53;;;6.85;100.00
50103;BME280;35993;52.604;10.078;2023-02-19T01:37:52;100960.34;;;6.82;100.00
50103;BME280;35993;52.604;10.078;2023-02-19T01:40:17;100963.13;;;6.88;100.00
50103;BME280;35993;52.604;10.078;2023-02-19T01:42:43;100966.38;;;6.84;100.00
50103;BME280;35993;52.604;10.078;2023-02-19T01:45:21;100957.66;;;6.82;100.00
50103;BME280;35993;52.604;10.078;2023-02-19T01:47:51;100952.25;;;6.82;100.00
50103;BME280;35993;52.604;10.078;2023-02-19T01:50:18;100959.88;;;6.78;100.00
50103;BME280;35993;52.604;10.078;2023-02-19T01:52:44;100960.53;;;6.80;100.00
50103;BME280;35993;52.604;10.078;2023-02-19T01:55:11;100963.78;;;6.76;100.00
50103;BME280;35993;52.604;10.078;2023-02-19T01:57:41;100954.84;;;6.75;100.00
50103;BME280;35993;52.604;10.078;2023-02-19T02:00:09;100954.84;;;6.75;100.00
50103;BME280;35993;52.604;10.078;2023-02-19T02:02:41;100946.13;;;6.73;100.00
50103;BME280;35993;52.604;10.078;2023-02-19T02:05:19;100948.63;;;6.75;100.00
50103;BME280;35993;52.604;10.078;2023-02-19T02:07:48;100962.78;;;6.77;100.00
50103;BME280;35993;52.604;10.078;2023-02-19T02:10:33;100959.03;;;6.78;100.00
50103;BME280;35993;52.604;10.078;2023-02-19T02:12:58;100954.22;;;6.73;100.00
50103;BME280;35993;52.604;10.078;2023-02-19T02:15:33;100951.78;;;6.78;100.00
50103;BME280;35993;52.604;10.078;2023-02-19T02:18:25;100964.00;;;6.74;100.00
50103;BME280;35993;52.604;10.078;2023-02-19T02:21:32;100942.94;;;6.69;100.00
50103;BME280;35993;52.604;10.078;2023-02-19T02:24:10;100928.44;;;6.70;100.00
50103;BME280;35993;52.604;10.078;2023-02-19T02:30:08;100922.78;;;6.65;100.00
50103;BME280;35993;52.604;10.078;2023-02-19T02:32:53;100922.28;;;6.62;100.00
50103;BME280;35993;52.604;10.078;2023-02-19T02:35:24;100931.06;;;6.64;100.00
50103;BME280;35993;52.604;10.078;2023-02-19T02:37:54;100930.78;;;6.59;100.00
50103;BME280;35993;52.604;10.078;2023-02-19T02:40:21;100939.50;;;6.61;100.00
50103;BME280;35993;52.604;10.078;2023-02-19T02:42:46;100943.97;;;6.53;100.00
50103;BME280;35993;52.604;10.078;2023-02-19T02:53:40;100984.69;;;6.44;100.00
50103;BME280;35993;52.604;10.078;2023-02-19T02:56:26;100979.19;;;6.37;100.00
50103;BME280;35993;52.604;10.078;2023-02-19T02:58:53;100975.84;;;6.35;100.00
50103;BME280;35993;52.604;10.078;2023-02-19T03:01:24;100996.75;;;6.33;100.00
50103;BME280;35993;52.604;10.078;2023-02-19T03:04:23;100984.72;;;6.20;100.00
50103;BME280;35993;52.604;10.078;2023-02-19T03:06:52;100988.72;;;6.25;100.00
50103;BME280;35993;52.604;10.078;2023-02-19T03:09:23;100986.94;;;6.17;100.00
50103;BME280;35993;52.604;10.078;2023-02-19T03:11:57;100991.13;;;6.19;100.00
50103;BME280;35993;52.604;10.078;2023-02-19T03:14:46;100993.16;;;6.17;100.00
50103;BME280;35993;52.604;10.078;2023-02-19T03:17:40;100988.97;;;6.15;100.00
50103;BME280;35993;52.604;10.078;2023-02-19T03:20:26;100986.16;;;6.08;100.00
50103;BME280;35993;52.604;10.078;2023-02-19T03:22:54;100978.81;;;6.02;100.00
50103;BME280;35993;52.604;10.078;2023-02-19T03:25:24;101001.38;;;6.01;100.00
50103;BME280;35993;52.604;10.078;2023-02-19T03:28:14;100992.84;;;5.89;100.00
50103;BME280;35993;52.604;10.078;2023-02-19T03:30:46;101002.50;;;5.83;100.00
50103;BME280;35993;52.604;10.078;2023-02-19T03:33:17;100993.22;;;5.86;100.00
50103;BME280;35993;52.604;10.078;2023-02-19T03:35:48;101005.34;;;5.82;100.00
50103;BME280;35993;52.604;10.078;2023-02-19T03:40:59;101015.28;;;5.81;100.00
50103;BME280;35993;52.604;10.078;2023-02-19T03:48:35;101020.25;;;5.69;100.00
50103;BME280;35993;52.604;10.078;2023-02-19T03:51:19;101026.66;;;5.68;100.00
50103;BME280;35993;52.604;10.078;2023-02-19T03:54:15;101038.81;;;5.64;100.00
50103;BME280;35993;52.604;10.078;2023-02-19T03:56:51;101046.03;;;5.64;100.00
50103;BME280;35993;52.604;10.078;2023-02-19T04:01:55;101049.78;;;5.54;100.00
50103;BME280;35993;52.604;10.078;2023-02-19T04:04:34;101047.16;;;5.46;100.00
50103;BME280;35993;52.604;10.078;2023-02-19T04:07:02;101050.47;;;5.48;100.00
50103;BME280;35993;52.604;10.078;2023-02-19T04:09:41;101055.22;;;5.46;100.00
50103;BME280;35993;52.604;10.078;2023-02-19T04:12:13;101057.75;;;5.39;100.00
50103;BME280;35993;52.604;10.078;2023-02-19T04:14:44;101066.19;;;5.36;100.00
50103;BME280;35993;52.604;10.078;2023-02-19T04:17:25;101070.56;;;5.29;100.00
50103;BME280;35993;52.604;10.078;2023-02-19T04:19:53;101078.16;;;5.25;100.00
50103;BME280;35993;52.604;10.078;2023-02-19T04:22:21;101082.53;;;5.27;100.00
50103;BME280;35993;52.604;10.078;2023-02-19T04:24:49;101088.59;;;5.29;100.00
50103;BME280;35993;52.604;10.078;2023-02-19T04:27:16;101096.16;;;5.33;100.00
50103;BME280;35993;52.604;10.078;2023-02-19T04:29:42;101102.06;;;5.29;100.00
50103;BME280;35993;52.604;10.078;2023-02-19T04:32:12;101106.59;;;5.28;100.00
50103;BME280;35993;52.604;10.078;2023-02-19T04:34:38;101112.81;;;5.20;100.00
50103;BME280;35993;52.604;10.078;2023-02-19T04:37:04;101114.00;;;5.18;100.00
50103;BME280;35993;52.604;10.078;2023-02-19T04:39:30;101119.91;;;5.13;100.00
50103;BME280;35993;52.604;10.078;2023-02-19T04:41:55;101127.84;;;5.06;100.00
50103;BME280;35993;52.604;10.078;2023-02-19T04:44:21;101142.81;;;5.01;100.00
50103;BME280;35993;52.604;10.078;2023-02-19T04:46:47;101139.97;;;4.94;100.00
50103;BME280;35993;52.604;10.078;2023-02-19T04:49:12;101146.53;;;4.91;100.00
50103;BME280;35993;52.604;10.078;2023-02-19T04:51:38;101143.66;;;4.76;100.00
50103;BME280;35993;52.604;10.078;2023-02-19T04:54:04;101143.34;;;4.63;100.00
50103;BME280;35993;52.604;10.078;2023-02-19T04:56:30;101156.09;;;4.61;100.00
50103;BME280;35993;52.604;10.078;2023-02-19T04:58:56;101163.97;;;4.63;100.00
50103;BME280;35993;52.604;10.078;2023-02-19T05:01:21;101169.88;;;4.58;100.00
50103;BME280;35993;52.604;10.078;2023-02-19T05:03:47;101178.59;;;4.60;100.00
50103;BME280;35993;52.604;10.078;2023-02-19T05:06:13;101191.88;;;4.62;100.00
50103;BME280;35993;52.604;10.078;2023-02-19T05:08:39;101193.41;;;4.56;100.00
50103;BME280;35993;52.604;10.078;2023-02-19T05:11:06;101199.44;;;4.50;100.00
50103;BME280;35993;52.604;10.078;2023-02-19T05:13:32;101199.94;;;4.45;100.00
50103;BME280;35993;52.604;10.078;2023-02-19T05:16:01;101209.31;;;4.41;100.00
50103;BME280;35993;52.604;10.078;2023-02-19T05:18:27;101214.69;;;4.41;100.00
50103;BME280;35993;52.604;10.078;2023-02-19T05:20:53;101226.09;;;4.35;100.00
50103;BME280;35993;52.604;10.078;2023-02-19T05:23:20;101225.91;;;4.28;100.00
50103;BME280;35993;52.604;10.078;2023-02-19T05:25:46;101220.03;;;4.24;100.00
50103;BME280;35993;52.604;10.078;2023-02-19T05:28:11;101228.25;;;4.23;100.00
50103;BME280;35993;52.604;10.078;2023-02-19T05:30:45;101229.06;;;4.15;100.00
50103;BME280;35993;52.604;10.078;2023-02-19T05:33:11;101249.56;;;4.16;100.00
50103;BME280;35993;52.604;10.078;2023-02-19T05:35:49;101244.38;;;4.23;100.00
50103;BME280;35993;52.604;10.078;2023-02-19T05:38:16;101243.53;;;4.22;100.00
50103;BME280;35993;52.604;10.078;2023-02-19T05:40:42;101255.28;;;4.21;100.00
50103;BME280;35993;52.604;10.078;2023-02-19T05:43:09;101255.28;;;4.21;100.00
50103;BME280;35993;52.604;10.078;2023-02-19T05:45:35;101264.19;;;4.22;100.00
50103;BME280;35993;52.604;10.078;2023-02-19T05:48:01;101267.56;;;4.24;100.00
50103;BME280;35993;52.604;10.078;2023-02-19T05:50:27;101272.41;;;4.20;100.00
50103;BME280;35993;52.604;10.078;2023-02-19T05:52:52;101263.16;;;4.15;100.00
50103;BME280;35993;52.604;10.078;2023-02-19T05:55:18;101281.13;;;4.14;100.00
50103;BME280;35993;52.604;10.078;2023-02-19T05:57:46;101279.44;;;4.13;100.00
50103;BME280;35993;52.604;10.078;2023-02-19T06:00:15;101281.81;;;4.16;100.00
50103;BME280;35993;52.604;10.078;2023-02-19T06:02:41;101282.63;;;4.17;100.00
50103;BME280;35993;52.604;10.078;2023-02-19T06:05:08;101292.59;;;4.24;100.00
50103;BME280;35993;52.604;10.078;2023-02-19T06:07:34;101299.28;;;4.20;100.00
50103;BME280;35993;52.604;10.078;2023-02-19T06:10:00;101307.53;;;4.19;100.00
50103;BME280;35993;52.604;10.078;2023-02-19T06:12:25;101302.16;;;4.19;100.00
50103;BME280;35993;52.604;10.078;2023-02-19T06:14:51;101317.44;;;4.18;100.00
50103;BME280;35993;52.604;10.078;2023-02-19T06:17:16;101313.84;;;4.09;100.00
50103;BME280;35993;52.604;10.078;2023-02-19T06:19:42;101329.47;;;4.14;100.00
50103;BME280;35993;52.604;10.078;2023-02-19T06:22:08;101327.81;;;4.13;100.00
50103;BME280;35993;52.604;10.078;2023-02-19T06:24:34;101336.19;;;4.10;100.00
50103;BME280;35993;52.604;10.078;2023-02-19T06:27:05;101343.25;;;4.11;100.00
50103;BME280;35993;52.604;10.078;2023-02-19T06:29:31;101344.25;;;4.10;100.00
50103;BME280;35993;52.604;10.078;2023-02-19T06:31:57;101344.03;;;4.03;100.00
50103;BME280;35993;52.604;10.078;2023-02-19T06:34:24;101355.59;;;3.96;100.00
50103;BME280;35993;52.604;10.078;2023-02-19T06:36:49;101355.22;;;3.90;100.00
50103;BME280;35993;52.604;10.078;2023-02-19T06:39:15;101361.69;;;4.06;100.00
50103;BME280;35993;52.604;10.078;2023-02-19T06:41:41;101360.06;;;3.87;100.00
50103;BME280;35993;52.604;10.078;2023-02-19T06:44:06;101368.47;;;3.92;100.00
50103;BME280;35993;52.604;10.078;2023-02-19T06:46:32;101375.53;;;3.93;100.00
50103;BME280;35993;52.604;10.078;2023-02-19T06:48:58;101380.28;;;3.99;100.00
50103;BME280;35993;52.604;10.078;2023-02-19T06:51:24;101383.03;;;3.81;100.00
50103;BME280;35993;52.604;10.078;2023-02-19T06:53:52;101383.34;;;3.60;100.00
50103;BME280;35993;52.604;10.078;2023-02-19T06:58:52;101407.66;;;3.58;100.00
50103;BME280;35993;52.604;10.078;2023-02-19T07:01:18;101407.56;;;3.50;100.00
50103;BME280;35993;52.604;10.078;2023-02-19T07:03:43;101409.25;;;3.51;100.00
50103;BME280;35993;52.604;10.078;2023-02-19T07:06:09;101423.00;;;3.48;100.00
50103;BME280;35993;52.604;10.078;2023-02-19T07:08:35;101423.00;;;3.48;100.00
50103;BME280;35993;52.604;10.078;2023-02-19T07:11:00;101444.72;;;3.55;100.00
50103;BME280;35993;52.604;10.078;2023-02-19T07:13:26;101442.34;;;3.70;100.00
50103;BME280;35993;52.604;10.078;2023-02-19T07:15:59;101445.78;;;3.62;100.00
50103;BME280;35993;52.604;10.078;2023-02-19T07:18:25;101449.16;;;3.64;100.00
50103;BME280;35993;52.604;10.078;2023-02-19T07:20:50;101447.56;;;3.71;100.00
50103;BME280;35993;52.604;10.078;2023-02-19T07:23:16;101467.13;;;3.82;100.00
50103;BME280;35993;52.604;10.078;2023-02-19T07:25:42;101473.88;;;3.68;100.00
50103;BME280;35993;52.604;10.078;2023-02-19T07:28:07;101477.09;;;3.53;100.00
50103;BME280;35993;52.604;10.078;2023-02-19T07:30:33;101478.78;;;3.54;100.00
50103;BME280;35993;52.604;10.078;2023-02-19T07:32:59;101484.44;;;3.51;100.00
50103;BME280;35993;52.604;10.078;2023-02-19T07:35:24;101497.41;;;3.56;100.00
50103;BME280;35993;52.604;10.078;2023-02-19T07:37:50;101506.91;;;3.50;100.00
50103;BME280;35993;52.604;10.078;2023-02-19T07:40:15;101513.19;;;3.41;100.00
50103;BME280;35993;52.604;10.078;2023-02-19T07:42:41;101515.81;;;3.51;100.00
50103;BME280;35993;52.604;10.078;2023-02-19T07:45:06;101519.88;;;3.55;100.00
50103;BME280;35993;52.604;10.078;2023-02-19T07:47:32;101520.88;;;3.72;100.00
50103;BME280;35993;52.604;10.078;2023-02-19T07:49:58;101514.91;;;3.78;100.00
50103;BME280;35993;52.604;10.078;2023-02-19T07:52:23;101514.84;;;3.70;100.00
50103;BME280;35993;52.604;10.078;2023-02-19T07:54:49;101528.31;;;3.60;100.00
50103;BME280;35993;52.604;10.078;2023-02-19T07:57:15;101530.31;;;3.58;100.00
50103;BME280;35993;52.604;10.078;2023-02-19T07:59:40;101525.25;;;3.55;100.00
50103;BME280;35993;52.604;10.078;2023-02-19T08:02:17;101544.78;;;3.47;100.00
50103;BME280;35993;52.604;10.078;2023-02-19T08:05:02;101548.31;;;3.48;100.00
50103;BME280;35993;52.604;10.078;2023-02-19T08:07:32;101566.75;;;3.60;100.00
50103;BME280;35993;52.604;10.078;2023-02-19T08:09:58;101567.91;;;3.58;100.00
50103;BME280;35993;52.604;10.078;2023-02-19T08:12:42;101575.34;;;3.64;100.00
50103;BME280;35993;52.604;10.078;2023-02-19T08:15:26;101586.97;;;3.65;100.00
50103;BME280;35993;52.604;10.078;2023-02-19T08:17:51;101591.84;;;3.69;100.00
50103;BME280;35993;52.604;10.078;2023-02-19T08:20:17;101605.56;;;3.76;100.00
50103;BME280;35993;52.604;10.078;2023-02-19T08:22:42;101603.81;;;3.57;100.00
50103;BME280;35993;52.604;10.078;2023-02-19T08:25:08;101606.19;;;3.60;100.00
50103;BME280;35993;52.604;10.078;2023-02-19T08:27:34;101617.38;;;3.55;100.00
50103;BME280;35993;52.604;10.078;2023-02-19T08:29:59;101615.47;;;3.66;100.00
50103;BME280;35993;52.604;10.078;2023-02-19T08:32:25;101626.72;;;3.79;100.00
50103;BME280;35993;52.604;10.078;2023-02-19T08:34:50;101630.56;;;3.76;100.00
50103;BME280;35993;52.604;10.078;2023-02-19T08:37:34;101629.19;;;3.72;100.00
50103;BME280;35993;52.604;10.078;2023-02-19T08:40:18;101633.41;;;3.75;100.00
50103;BME280;35993;52.604;10.078;2023-02-19T08:43:04;101633.66;;;3.82;100.00
50103;BME280;35993;52.604;10.078;2023-02-19T13:41:52;101837.53;;;7.31;79.22
50103;BME280;35993;52.604;10.078;2023-02-19T13:44:39;101843.47;;;7.60;80.73
50103;BME280;35993;52.604;10.078;2023-02-19T13:47:57;101838.53;;;7.63;79.87
50103;BME280;35993;52.604;10.078;2023-02-19T13:50:42;101819.66;;;7.55;77.92
50103;BME280;35993;52.604;10.078;2023-02-19T13:59:35;101824.22;;;7.38;78.46
50103;BME280;35993;52.604;10.078;2023-02-19T14:05:08;101820.50;;;7.22;79.12
50103;BME280;35993;52.604;10.078;2023-02-19T14:07:54;101822.00;;;7.17;77.88
50103;BME280;35993;52.604;10.078;2023-02-19T14:19:58;101846.31;;;7.25;77.84
50103;BME280;35993;52.604;10.078;2023-02-19T14:25:47;101854.41;;;7.09;78.05
50103;BME280;35993;52.604;10.078;2023-02-19T14:28:40;101853.72;;;7.07;76.54
50103;BME280;35993;52.604;10.078;2023-02-19T14:31:32;101847.66;;;7.13;76.78
50103;BME280;35993;52.604;10.078;2023-02-19T14:34:19;101853.22;;;7.19;76.21
50103;BME280;35993;52.604;10.078;2023-02-19T14:37:17;101861.00;;;7.22;75.97
50103;BME280;35993;52.604;10.078;2023-02-19T14:40:03;101876.91;;;7.42;77.43
50103;BME280;35993;52.604;10.078;2023-02-19T14:42:48;101876.06;;;7.50;77.13
50103;BME280;35993;52.604;10.078;2023-02-19T14:45:41;101861.53;;;7.34;75.24
50103;BME280;35993;52.604;10.078;2023-02-19T14:48:37;101870.63;;;7.25;77.18
50103;BME280;35993;52.604;10.078;2023-02-19T14:51:30;101868.25;;;7.22;76.66
50103;BME280;35993;52.604;10.078;2023-02-19T14:54:19;101881.75;;;7.22;77.39
50103;BME280;35993;52.604;10.078;2023-02-19T14:57:11;101873.25;;;7.00;75.87
50103;BME280;35993;52.604;10.078;2023-02-19T15:00:15;101874.09;;;6.93;77.63
50103;BME280;35993;52.604;10.078;2023-02-19T15:03:04;101871.03;;;6.79;78.05
50103;BME280;35993;52.604;10.078;2023-02-19T15:05:53;101868.81;;;6.75;79.46
50103;BME280;35993;52.604;10.078;2023-02-19T15:08:47;101868.47;;;6.78;79.77
50103;BME280;35993;52.604;10.078;2023-02-19T15:11:33;101870.81;;;6.72;79.97
50103;BME280;35993;52.604;10.078;2023-02-19T15:14:20;101871.84;;;6.71;79.86
50103;BME280;35993;52.604;10.078;2023-02-19T15:17:06;101858.66;;;6.68;79.70
50103;BME280;35993;52.604;10.078;2023-02-19T15:19:50;101862.00;;;6.62;80.82
50103;BME280;35993;52.604;10.078;2023-02-19T15:22:36;101862.63;;;6.48;81.63
50103;BME280;35993;52.604;10.078;2023-02-19T15:25:26;101861.97;;;6.54;81.99
50103;BME280;35993;52.604;10.078;2023-02-19T15:31:13;101867.03;;;6.49;82.10
50103;BME280;35993;52.604;10.078;2023-02-19T15:33:58;101867.22;;;6.55;81.88
50103;BME280;35993;52.604;10.078;2023-02-19T15:36:42;101872.31;;;6.59;82.16
50103;BME280;35993;52.604;10.078;2023-02-19T15:39:37;101866.91;;;6.59;81.69
50103;BME280;35993;52.604;10.078;2023-02-19T15:42:25;101861.34;;;6.68;82.08
50103;BME280;35993;52.604;10.078;2023-02-19T15:45:19;101867.97;;;6.74;82.45
50103;BME280;35993;52.604;10.078;2023-02-19T15:48:10;101857.50;;;6.71;81.00
50103;BME280;35993;52.604;10.078;2023-02-19T15:51:00;101849.03;;;6.66;82.29
50103;BME280;35993;52.604;10.078;2023-02-19T15:53:56;101847.69;;;6.62;81.99
50103;BME280;35993;52.604;10.078;2023-02-19T15:56:44;101854.88;;;6.53;81.33
50103;BME280;35993;52.604;10.078;2023-02-19T15:59:47;101861.09;;;6.45;81.23
50103;BME280;35993;52.604;10.078;2023-02-19T16:02:33;101859.03;;;6.39;82.49
50103;BME280;35993;52.604;10.078;2023-02-19T16:05:25;101858.69;;;6.34;82.31
50103;BME280;35993;52.604;10.078;2023-02-19T16:10:36;101856.25;;;6.22;83.73
50103;BME280;35993;52.604;10.078;2023-02-19T16:13:03;101867.66;;;6.16;84.94
50103;BME280;35993;52.604;10.078;2023-02-19T16:15:30;101873.88;;;6.09;84.88
50103;BME280;35993;52.604;10.078;2023-02-19T16:17:57;101880.34;;;5.98;85.06
50103;BME280;35993;52.604;10.078;2023-02-19T16:20:31;101884.78;;;5.99;85.86
50103;BME280;35993;52.604;10.078;2023-02-19T16:23:04;101878.97;;;5.94;86.63
50103;BME280;35993;52.604;10.078;2023-02-19T16:25:41;101880.81;;;5.93;86.39
50103;BME280;35993;52.604;10.078;2023-02-19T16:28:20;101894.44;;;5.91;87.13
50103;BME280;35993;52.604;10.078;2023-02-19T16:30:54;101890.84;;;5.83;87.05
50103;BME280;35993;52.604;10.078;2023-02-19T16:35:56;101895.19;;;5.76;88.30
50103;BME280;35993;52.604;10.078;2023-02-19T16:38:23;101896.88;;;5.58;88.64
50103;BME280;35993;52.604;10.078;2023-02-19T16:43:27;101912.97;;;5.50;90.27
50103;BME280;35993;52.604;10.078;2023-02-19T16:45:54;101919.03;;;5.52;90.07
50103;BME280;35993;52.604;10.078;2023-02-19T16:48:21;101922.88;;;5.50;90.60
50103;BME280;35993;52.604;10.078;2023-02-19T16:50:47;101924.97;;;5.38;91.32
50103;BME280;35993;52.604;10.078;2023-02-19T16:53:23;101928.81;;;5.35;92.32
50103;BME280;35993;52.604;10.078;2023-02-19T16:55:53;101925.88;;;5.29;92.77
50103;BME280;35993;52.604;10.078;2023-02-19T16:58:19;101928.56;;;5.29;93.02
50103;BME280;35993;52.604;10.078;2023-02-19T17:00:45;101935.28;;;5.24;93.41
50103;BME280;35993;52.604;10.078;2023-02-19T17:03:13;101936.94;;;5.25;93.16
50103;BME280;35993;52.604;10.078;2023-02-19T17:05:40;101932.47;;;5.16;94.00
50103;BME280;35993;52.604;10.078;2023-02-19T17:08:27;101934.59;;;5.13;94.86
50103;BME280;35993;52.604;10.078;2023-02-19T17:10:56;101939.09;;;5.04;95.01
50103;BME280;35993;52.604;10.078;2023-02-19T17:13:22;101924.69;;;4.95;96.07
50103;BME280;35993;52.604;10.078;2023-02-19T17:15:48;101940.13;;;4.93;96.52
50103;BME280;35993;52.604;10.078;2023-02-19T17:18:13;101933.94;;;4.83;97.64
50103;BME280;35993;52.604;10.078;2023-02-19T17:20:39;101934.38;;;4.78;98.11
50103;BME280;35993;52.604;10.078;2023-02-19T17:23:06;101934.38;;;4.78;98.74
50103;BME280;35993;52.604;10.078;2023-02-19T17:25:31;101932.16;;;4.73;99.17
50103;BME280;35993;52.604;10.078;2023-02-19T17:27:57;101938.13;;;4.67;99.63
50103;BME280;35993;52.604;10.078;2023-02-19T17:30:24;101942.66;;;4.67;100.00
50103;BME280;35993;52.604;10.078;2023-02-19T17:32:50;101935.00;;;4.72;100.00
50103;BME280;35993;52.604;10.078;2023-02-19T17:35:16;101938.13;;;4.67;100.00
50103;BME280;35993;52.604;10.078;2023-02-19T17:37:41;101946.75;;;4.61;100.00
50103;BME280;35993;52.604;10.078;2023-02-19T17:40:26;101945.38;;;4.57;100.00
50103;BME280;35993;52.604;10.078;2023-02-19T17:42:52;101944.50;;;4.56;100.00
50103;BME280;35993;52.604;10.078;2023-02-19T17:45:17;101945.13;;;4.50;100.00
50103;BME280;35993;52.604;10.078;2023-02-19T17:47:43;101937.72;;;4.52;100.00
50103;BME280;35993;52.604;10.078;2023-02-19T17:50:30;101943.97;;;4.53;100.00
50103;BME280;35993;52.604;10.078;2023-02-19T17:52:56;101941.97;;;4.55;100.00
50103;BME280;35993;52.604;10.078;2023-02-19T17:55:22;101937.72;;;4.52;100.00
50103;BME280;35993;52.604;10.078;2023-02-19T17:57:49;101937.97;;;4.59;100.00
50103;BME280;35993;52.604;10.078;2023-02-19T18:00:17;101931.94;;;4.57;100.00
50103;BME280;35993;52.604;10.078;2023-02-19T18:02:43;101933.50;;;4.50;100.00
50103;BME280;35993;52.604;10.078;2023-02-19T18:05:09;101943.69;;;4.46;100.00
50103;BME280;35993;52.604;10.078;2023-02-19T18:07:34;101945.25;;;4.49;100.00
50103;BME280;35993;52.604;10.078;2023-02-19T18:10:01;101955.00;;;4.50;100.00
50103;BME280;35993;52.604;10.078;2023-02-19T18:12:27;101949.78;;;4.48;100.00
50103;BME280;35993;52.604;10.078;2023-02-19T18:14:53;101944.72;;;4.45;100.00
50103;BME280;35993;52.604;10.078;2023-02-19T18:17:24;101946.13;;;4.39;100.00
50103;BME280;35993;52.604;10.078;2023-02-19T18:19:51;101953.06;;;4.32;100.00
50103;BME280;35993;52.604;10.078;2023-02-19T18:22:17;101954.09;;;4.31;100.00
50103;BME280;35993;52.604;10.078;2023-02-19T18:24:47;101964.84;;;4.21;100.00
50103;BME280;35993;52.604;10.078;2023-02-19T18:27:13;101964.59;;;4.15;100.00
50103;BME280;35993;52.604;10.078;2023-02-19T18:29:39;101962.03;;;4.13;100.00
50103;BME280;35993;52.604;10.078;2023-02-19T18:32:05;101965.56;;;4.14;100.00
50103;BME280;35993;52.604;10.078;2023-02-19T18:34:31;101964.16;;;4.09;100.00
50103;BME280;35993;52.604;10.078;2023-02-19T18:36:56;101967.84;;;4.08;100.00
50103;BME280;35993;52.604;10.078;2023-02-19T18:39:22;101967.69;;;4.10;100.00
50103;BME280;35993;52.604;10.078;2023-02-19T18:41:49;101974.34;;;4.06;100.00
50103;BME280;35993;52.604;10.078;2023-02-19T18:44:19;101966.56;;;4.13;100.00
50103;BME280;35993;52.604;10.078;2023-02-19T18:46:45;101968.81;;;4.07;100.00
50103;BME280;35993;52.604;10.078;2023-02-19T18:49:11;101981.28;;;4.08;100.00
50103;BME280;35993;52.604;10.078;2023-02-19T18:51:37;101979.44;;;4.09;100.00
50103;BME280;35993;52.604;10.078;2023-02-19T18:54:03;101982.97;;;4.09;100.00
50103;BME280;35993;52.604;10.078;2023-02-19T18:56:29;101982.84;;;4.11;100.00
50103;BME280;35993;52.604;10.078;2023-02-19T18:58:55;101986.81;;;4.07;100.00
50103;BME280;35993;52.604;10.078;2023-02-19T19:01:22;101994.72;;;4.08;100.00